Time;durP1;ratioP1;P1;durP2;ratioP2;P2;SDS_P1;SDS_P2;PMS_P1;PMS_P2;Temp;Humidity;BMP_temperature;BMP_pressure;BME280_temperature;BME280_humidity;BME280_pressure;Samples;Min_cycle;Max_cycle;Signal;HPM_P1;HPM_P2
2021/05/15 00:01:03;;;;;;;9.40;5.10;;;;;;;;;;5038022;28;19952;-60
2021/05/15 00:03:29;;;;;;;10.27;5.57;;;;;;;;;;5036108;28;20477;-60
2021/05/15 00:05:55;;;;;;;12.00;5.70;;;;;;;;;;5035345;28;20033;-60
2021/05/15 00:08:21;;;;;;;13.65;7.72;;;;;;;;;;5032247;28;20207;-60
2021/05/15 00:10:50;;;;;;;16.33;7.32;;;;;;;;;;5032679;28;20032;-59
2021/05/15 00:13:16;;;;;;;12.55;7.13;;;;;;;;;;5035145;28;20029;-60
2021/05/15 00:15:42;;;;;;;12.60;6.70;;;;;;;;;;5036723;28;20534;-60
2021/05/15 00:18:08;;;;;;;16.45;7.68;;;;;;;;;;5033754;28;20382;-60
2021/05/15 00:20:35;;;;;;;12.88;6.60;;;;;;;;;;5033907;28;20018;-60
2021/05/15 00:23:01;;;;;;;13.05;6.22;;;;;;;;;;5034524;28;20126;-60
2021/05/15 00:25:27;;;;;;;14.82;6.72;;;;;;;;;;5032060;28;20034;-59
2021/05/15 00:27:53;;;;;;;14.35;6.20;;;;;;;;;;5036162;28;20116;-60
2021/05/15 00:30:19;;;;;;;19.50;6.38;;;;;;;;;;5035498;28;20026;-60
2021/05/15 00:32:45;;;;;;;12.27;6.53;;;;;;;;;;5035442;28;20461;-60
2021/05/15 00:35:12;;;;;;;10.73;6.50;;;;;;;;;;5035012;28;20032;-60
2021/05/15 00:37:38;;;;;;;10.13;5.68;;;;;;;;;;5031017;28;20081;-60
2021/05/15 00:40:07;;;;;;;13.57;6.72;;;;;;;;;;5033583;28;20036;-60
2021/05/15 00:42:34;;;;;;;11.52;6.13;;;;;;;;;;5035375;28;20036;-60
2021/05/15 00:45:01;;;;;;;9.55;5.30;;;;;;;;;;5035662;28;20423;-60
2021/05/15 00:47:27;;;;;;;9.13;5.35;;;;;;;;;;5035061;28;20025;-60
2021/05/15 00:49:53;;;;;;;10.45;5.20;;;;;;;;;;5032526;28;20026;-60
2021/05/15 00:52:20;;;;;;;8.98;5.22;;;;;;;;;;5033501;28;20469;-60
2021/05/15 00:54:46;;;;;;;9.30;4.80;;;;;;;;;;5037021;28;20068;-59
2021/05/15 00:57:13;;;;;;;10.25;5.00;;;;;;;;;;5033053;28;20028;-60
2021/05/15 00:59:39;;;;;;;13.10;5.65;;;;;;;;;;5036229;28;20029;-59
2021/05/15 01:02:06;;;;;;;10.30;5.70;;;;;;;;;;5034565;28;20079;-59
2021/05/15 01:04:32;;;;;;;8.77;4.85;;;;;;;;;;5031117;28;20037;-60
2021/05/15 01:06:59;;;;;;;12.73;5.30;;;;;;;;;;5037122;28;20439;-60
2021/05/15 01:09:25;;;;;;;13.52;5.78;;;;;;;;;;5030619;28;20025;-60
2021/05/15 01:11:51;;;;;;;11.32;5.80;;;;;;;;;;5034190;28;20550;-60
2021/05/15 01:14:17;;;;;;;9.85;4.85;;;;;;;;;;5034654;28;20483;-60
2021/05/15 01:16:43;;;;;;;17.02;6.43;;;;;;;;;;5031395;28;20026;-60
2021/05/15 01:19:12;;;;;;;11.93;5.45;;;;;;;;;;5034622;28;20038;-60
2021/05/15 01:21:38;;;;;;;10.45;4.55;;;;;;;;;;5033470;28;20031;-60
2021/05/15 01:24:04;;;;;;;9.43;4.95;;;;;;;;;;5034602;28;20029;-60
2021/05/15 01:26:31;;;;;;;11.30;4.90;;;;;;;;;;5033790;28;20107;-60
2021/05/15 01:28:59;;;;;;;10.80;5.22;;;;;;;;;;5032555;28;20033;-60
2021/05/15 01:31:25;;;;;;;8.68;5.28;;;;;;;;;;5031663;28;20021;-60
2021/05/15 01:33:52;;;;;;;9.05;5.22;;;;;;;;;;5035929;28;20060;-59
2021/05/15 01:36:18;;;;;;;10.88;5.30;;;;;;;;;;5033035;28;20109;-59
2021/05/15 01:38:44;;;;;;;14.18;5.22;;;;;;;;;;5028965;28;20076;-60
2021/05/15 01:41:12;;;;;;;13.02;5.32;;;;;;;;;;5033272;28;20048;-59
2021/05/15 01:43:38;;;;;;;11.07;5.18;;;;;;;;;;5030154;28;20049;-60
2021/05/15 01:46:05;;;;;;;12.45;5.55;;;;;;;;;;5036319;28;20100;-59
2021/05/15 01:48:31;;;;;;;12.50;6.20;;;;;;;;;;5033876;28;20392;-60
2021/05/15 01:50:57;;;;;;;17.52;5.22;;;;;;;;;;5034142;28;20036;-59
2021/05/15 01:53:27;;;;;;;9.65;4.88;;;;;;;;;;5033704;28;20318;-59
2021/05/15 01:55:53;;;;;;;13.70;5.18;;;;;;;;;;5031204;28;20075;-60
2021/05/15 01:58:20;;;;;;;9.98;5.20;;;;;;;;;;5032216;28;20064;-60
2021/05/15 02:00:46;;;;;;;10.75;5.38;;;;;;;;;;5035278;28;20351;-60
2021/05/15 02:03:12;;;;;;;14.55;5.38;;;;;;;;;;5033769;28;20033;-60
2021/05/15 02:05:38;;;;;;;9.60;5.45;;;;;;;;;;5033680;28;20025;-59
2021/05/15 02:08:04;;;;;;;10.45;5.53;;;;;;;;;;5030159;28;20035;-60
2021/05/15 02:10:30;;;;;;;9.48;5.38;;;;;;;;;;5028710;28;20030;-59
2021/05/15 02:12:56;;;;;;;10.18;5.90;;;;;;;;;;5035777;28;20021;-59
2021/05/15 02:15:22;;;;;;;13.13;6.80;;;;;;;;;;5032051;28;20045;-59
2021/05/15 02:17:48;;;;;;;16.50;6.68;;;;;;;;;;5032019;28;20033;-59
2021/05/15 02:20:14;;;;;;;19.30;7.65;;;;;;;;;;5033256;28;20033;-59
2021/05/15 02:22:40;;;;;;;10.52;6.38;;;;;;;;;;5029352;28;20018;-59
2021/05/15 02:25:07;;;;;;;12.20;5.78;;;;;;;;;;5034889;28;20029;-60
2021/05/15 02:27:33;;;;;;;12.20;5.35;;;;;;;;;;5032147;28;20436;-60
2021/05/15 02:29:59;;;;;;;15.82;6.50;;;;;;;;;;5033255;28;20485;-60
2021/05/15 02:32:25;;;;;;;13.52;4.68;;;;;;;;;;5033522;28;20029;-60
2021/05/15 02:34:51;;;;;;;10.50;4.88;;;;;;;;;;5030165;28;20552;-59
2021/05/15 02:37:17;;;;;;;8.98;4.75;;;;;;;;;;5031751;28;20113;-60
2021/05/15 02:39:43;;;;;;;8.75;4.63;;;;;;;;;;5030959;28;20057;-59
2021/05/15 02:42:09;;;;;;;9.88;5.38;;;;;;;;;;5033245;28;20032;-60
2021/05/15 02:44:35;;;;;;;10.63;5.80;;;;;;;;;;5033600;28;20276;-60
2021/05/15 02:47:01;;;;;;;10.98;6.32;;;;;;;;;;5032148;28;20491;-60
2021/05/15 02:49:27;;;;;;;12.75;6.68;;;;;;;;;;5029746;28;20041;-59
2021/05/15 02:51:53;;;;;;;14.98;6.55;;;;;;;;;;5035035;28;20021;-60
2021/05/15 02:54:19;;;;;;;13.35;7.00;;;;;;;;;;5031905;28;20064;-59
2021/05/15 02:56:45;;;;;;;10.40;6.50;;;;;;;;;;5031717;28;20476;-60
2021/05/15 02:59:11;;;;;;;12.10;6.03;;;;;;;;;;5032663;28;20040;-60
2021/05/15 03:01:37;;;;;;;11.57;6.22;;;;;;;;;;5029078;28;20030;-60
2021/05/15 03:04:03;;;;;;;11.50;5.47;;;;;;;;;;5035254;28;20025;-60
2021/05/15 03:06:29;;;;;;;10.20;5.80;;;;;;;;;;5033041;28;20076;-60
2021/05/15 03:08:55;;;;;;;16.85;6.38;;;;;;;;;;5029190;28;20029;-59
2021/05/15 03:11:21;;;;;;;10.00;4.82;;;;;;;;;;5032885;28;20092;-60
2021/05/15 03:13:47;;;;;;;13.10;5.20;;;;;;;;;;5030275;28;20109;-60
2021/05/15 03:16:13;;;;;;;8.98;4.90;;;;;;;;;;5033359;28;20022;-60
2021/05/15 03:18:39;;;;;;;11.15;4.72;;;;;;;;;;5033493;28;20472;-59
2021/05/15 03:21:05;;;;;;;10.65;5.05;;;;;;;;;;5032651;28;20025;-60
2021/05/15 03:23:31;;;;;;;13.52;6.13;;;;;;;;;;5032677;28;20025;-59
2021/05/15 03:25:57;;;;;;;9.18;4.30;;;;;;;;;;5031337;28;20030;-60
2021/05/15 03:28:23;;;;;;;9.82;4.82;;;;;;;;;;5030374;28;20014;-60
2021/05/15 03:30:50;;;;;;;9.95;4.50;;;;;;;;;;5035024;28;20029;-60
2021/05/15 03:33:16;;;;;;;10.63;4.90;;;;;;;;;;5030988;28;20075;-60
2021/05/15 03:35:42;;;;;;;8.70;4.63;;;;;;;;;;5031616;28;20072;-60
2021/05/15 03:38:09;;;;;;;9.98;4.80;;;;;;;;;;5028248;28;20056;-60
2021/05/15 03:40:35;;;;;;;10.77;4.72;;;;;;;;;;5012872;28;20030;-60
2021/05/15 03:43:02;;;;;;;8.45;4.40;;;;;;;;;;5034375;28;20441;-60
2021/05/15 03:45:28;;;;;;;7.55;4.63;;;;;;;;;;5034332;28;20026;-60
2021/05/15 03:47:54;;;;;;;11.07;5.10;;;;;;;;;;5036225;28;20079;-60
2021/05/15 03:50:22;;;;;;;12.52;5.38;;;;;;;;;;5036243;28;20329;-60
2021/05/15 03:52:48;;;;;;;13.77;4.57;;;;;;;;;;5032912;28;20033;-59
2021/05/15 03:55:14;;;;;;;11.13;4.28;;;;;;;;;;5036102;28;20499;-61
2021/05/15 03:57:40;;;;;;;12.40;4.05;;;;;;;;;;5037106;28;20458;-60
2021/05/15 04:00:08;;;;;;;10.68;4.47;;;;;;;;;;5036398;28;20032;-60
2021/05/15 04:02:34;;;;;;;10.98;4.75;;;;;;;;;;5035736;28;20041;-60
2021/05/15 04:05:00;;;;;;;12.75;4.07;;;;;;;;;;5034829;28;20433;-59
2021/05/15 04:07:26;;;;;;;8.52;3.42;;;;;;;;;;5032738;28;20029;-60
2021/05/15 04:09:52;;;;;;;8.40;3.25;;;;;;;;;;5034028;28;20039;-60
2021/05/15 04:12:18;;;;;;;10.90;3.67;;;;;;;;;;5034182;28;20021;-59
2021/05/15 04:15:25;;;;;;;8.55;4.15;;;;;;;;;;5034869;28;20025;-60
2021/05/15 04:17:37;;;;;;;8.35;3.40;;;;;;;;;;5035160;28;20044;-60
2021/05/15 04:20:04;;;;;;;10.02;4.03;;;;;;;;;;5034705;28;20051;-60
2021/05/15 04:22:30;;;;;;;7.28;4.40;;;;;;;;;;5031977;28;20072;-59
2021/05/15 04:24:58;;;;;;;8.52;3.80;;;;;;;;;;5038045;28;20057;-60
2021/05/15 04:27:25;;;;;;;11.05;3.80;;;;;;;;;;5034569;28;20039;-60
2021/05/15 04:29:51;;;;;;;7.47;3.70;;;;;;;;;;5033893;28;20037;-60
2021/05/15 04:32:18;;;;;;;7.10;3.65;;;;;;;;;;5035183;28;20194;-60
2021/05/15 04:34:43;;;;;;;6.00;3.42;;;;;;;;;;5031472;28;20534;-60
2021/05/15 04:37:09;;;;;;;8.13;4.30;;;;;;;;;;5036142;28;20053;-61
2021/05/15 04:39:35;;;;;;;11.00;3.85;;;;;;;;;;5030863;28;20048;-60
2021/05/15 04:42:01;;;;;;;7.75;3.78;;;;;;;;;;5033619;28;20044;-60
2021/05/15 04:44:28;;;;;;;8.85;4.03;;;;;;;;;;5035265;28;20044;-60
2021/05/15 04:46:54;;;;;;;7.53;3.28;;;;;;;;;;5033299;28;20032;-60
2021/05/15 04:49:21;;;;;;;9.68;3.95;;;;;;;;;;5033672;28;20030;-61
2021/05/15 04:51:47;;;;;;;6.50;3.03;;;;;;;;;;5034786;28;20022;-61
2021/05/15 04:54:13;;;;;;;5.00;3.08;;;;;;;;;;5033248;28;20066;-61
2021/05/15 04:56:39;;;;;;;6.00;3.35;;;;;;;;;;5033430;28;20068;-61
2021/05/15 04:59:06;;;;;;;8.50;3.50;;;;;;;;;;5034497;28;20078;-61
2021/05/15 05:01:32;;;;;;;6.50;3.55;;;;;;;;;;5030819;28;20026;-61
2021/05/15 05:03:58;;;;;;;6.35;3.58;;;;;;;;;;5036219;28;20029;-60
2021/05/15 05:06:24;;;;;;;8.55;3.38;;;;;;;;;;5034870;28;20029;-60
2021/05/15 05:08:50;;;;;;;8.27;3.70;;;;;;;;;;5031528;28;20033;-60
2021/05/15 05:11:16;;;;;;;6.55;3.20;;;;;;;;;;5034461;28;20107;-60
2021/05/15 05:13:42;;;;;;;6.22;2.95;;;;;;;;;;5030790;28;20469;-60
2021/05/15 05:16:08;;;;;;;8.40;2.95;;;;;;;;;;5035992;28;20025;-60
2021/05/15 05:18:34;;;;;;;5.82;2.80;;;;;;;;;;5034157;28;20044;-60
2021/05/15 05:21:01;;;;;;;4.88;2.40;;;;;;;;;;5034728;28;20023;-60
2021/05/15 05:23:27;;;;;;;4.00;2.40;;;;;;;;;;5034570;28;20033;-60
2021/05/15 05:25:54;;;;;;;6.82;2.78;;;;;;;;;;5032314;28;20022;-60
2021/05/15 05:28:34;;;;;;;5.80;2.53;;;;;;;;;;5032395;28;20040;-63
2021/05/15 05:31:03;;;;;;;8.15;2.60;;;;;;;;;;5035129;28;20477;-60
2021/05/15 05:33:29;;;;;;;5.60;2.65;;;;;;;;;;5031980;28;20029;-60
2021/05/15 05:35:56;;;;;;;5.45;2.40;;;;;;;;;;5034240;28;20036;-63
2021/05/15 05:38:22;;;;;;;5.90;2.70;;;;;;;;;;5030350;28;20129;-64
2021/05/15 05:40:48;;;;;;;5.45;2.50;;;;;;;;;;5031062;28;20060;-64
2021/05/15 05:43:14;;;;;;;8.07;2.85;;;;;;;;;;5033642;28;20110;-63
2021/05/15 05:45:40;;;;;;;5.82;3.03;;;;;;;;;;5034762;28;20026;-64
2021/05/15 05:48:06;;;;;;;7.75;2.60;;;;;;;;;;5033862;28;20083;-64
2021/05/15 05:50:32;;;;;;;5.70;2.10;;;;;;;;;;5034253;28;20033;-61
2021/05/15 05:52:58;;;;;;;5.95;2.30;;;;;;;;;;5032326;28;20105;-63
2021/05/15 05:55:24;;;;;;;7.00;2.97;;;;;;;;;;5030497;28;20025;-61
2021/05/15 05:57:51;;;;;;;7.30;3.13;;;;;;;;;;5034681;28;20044;-61
2021/05/15 06:00:17;;;;;;;5.60;3.30;;;;;;;;;;5034042;28;20440;-63
2021/05/15 06:02:50;;;;;;;6.72;3.50;;;;;;;;;;5033915;28;20040;-64
2021/05/15 06:05:16;;;;;;;9.25;4.75;;;;;;;;;;5033518;28;20028;-63
2021/05/15 06:07:42;;;;;;;9.13;3.67;;;;;;;;;;5030864;28;20026;-67
2021/05/15 06:10:08;;;;;;;6.78;3.15;;;;;;;;;;5042922;28;20032;-61
2021/05/15 06:12:34;;;;;;;10.60;3.00;;;;;;;;;;5026122;28;20036;-62
2021/05/15 06:15:02;;;;;;;6.55;2.63;;;;;;;;;;5038734;28;20033;-62
2021/05/15 06:17:28;;;;;;;5.65;2.60;;;;;;;;;;5035261;28;20017;-61
2021/05/15 06:19:54;;;;;;;5.72;2.10;;;;;;;;;;5029019;28;20026;-60
2021/05/15 06:22:20;;;;;;;3.65;1.95;;;;;;;;;;5028180;28;20017;-60
2021/05/15 06:24:46;;;;;;;8.88;2.08;;;;;;;;;;5031764;28;20029;-60
2021/05/15 06:27:12;;;;;;;5.63;2.08;;;;;;;;;;5027660;28;20526;-60
2021/05/15 06:29:38;;;;;;;9.02;2.80;;;;;;;;;;5034247;28;20025;-60
2021/05/15 06:32:04;;;;;;;8.48;2.38;;;;;;;;;;5032726;28;20476;-60
2021/05/15 06:34:30;;;;;;;6.55;2.25;;;;;;;;;;5028923;28;20064;-60
2021/05/15 06:36:56;;;;;;;5.13;2.30;;;;;;;;;;5035342;28;20064;-60
2021/05/15 06:39:22;;;;;;;11.20;2.60;;;;;;;;;;5025878;28;20060;-60
2021/05/15 06:41:48;;;;;;;7.13;2.60;;;;;;;;;;5027211;28;20025;-60
2021/05/15 06:44:14;;;;;;;6.43;2.63;;;;;;;;;;5027692;28;20029;-60
2021/05/15 06:46:40;;;;;;;6.22;2.42;;;;;;;;;;5026880;28;20026;-60
2021/05/15 06:49:06;;;;;;;7.18;2.88;;;;;;;;;;5036771;28;20067;-60
2021/05/15 06:51:32;;;;;;;8.30;2.65;;;;;;;;;;5030564;28;20041;-61
2021/05/15 06:53:58;;;;;;;4.80;2.50;;;;;;;;;;5029409;28;20060;-60
2021/05/15 06:56:24;;;;;;;7.75;2.45;;;;;;;;;;5031617;28;20025;-61
2021/05/15 06:58:50;;;;;;;6.25;2.20;;;;;;;;;;5029378;28;20536;-60
2021/05/15 07:01:16;;;;;;;4.68;2.10;;;;;;;;;;5046600;28;20059;-61
2021/05/15 07:03:42;;;;;;;6.22;2.20;;;;;;;;;;5031980;28;20664;-61
2021/05/15 07:06:08;;;;;;;5.63;2.40;;;;;;;;;;5031607;28;20033;-61
2021/05/15 07:08:34;;;;;;;5.88;2.30;;;;;;;;;;5031436;28;20028;-61
2021/05/15 07:11:00;;;;;;;7.03;2.40;;;;;;;;;;5043002;28;20025;-60
2021/05/15 07:13:26;;;;;;;6.90;2.28;;;;;;;;;;5029184;28;20030;-61
2021/05/15 07:15:52;;;;;;;7.80;2.10;;;;;;;;;;5031928;28;20041;-60
2021/05/15 07:18:19;;;;;;;5.22;2.08;;;;;;;;;;5032601;28;20507;-60
2021/05/15 07:20:45;;;;;;;3.78;2.00;;;;;;;;;;5036947;28;20091;-60
2021/05/15 07:23:11;;;;;;;5.35;2.08;;;;;;;;;;5035568;28;20488;-61
2021/05/15 07:25:37;;;;;;;4.60;1.90;;;;;;;;;;5027558;28;20093;-61
2021/05/15 07:28:04;;;;;;;3.75;2.03;;;;;;;;;;5026230;28;20052;-61
2021/05/15 07:30:30;;;;;;;5.05;2.15;;;;;;;;;;5047036;28;20025;-61
2021/05/15 07:32:57;;;;;;;9.10;2.60;;;;;;;;;;5041754;28;20029;-60
2021/05/15 07:35:26;;;;;;;5.57;2.10;;;;;;;;;;5036072;28;20503;-60
2021/05/15 07:37:52;;;;;;;4.90;2.33;;;;;;;;;;5032853;28;20417;-61
2021/05/15 07:40:19;;;;;;;6.68;2.15;;;;;;;;;;5037839;28;20028;-60
2021/05/15 07:42:45;;;;;;;4.80;2.30;;;;;;;;;;5032938;28;20026;-60
2021/05/15 07:45:12;;;;;;;8.60;2.35;;;;;;;;;;5035110;28;20410;-60
2021/05/15 07:47:38;;;;;;;3.78;1.80;;;;;;;;;;5035902;28;20402;-60
2021/05/15 07:50:04;;;;;;;4.28;1.77;;;;;;;;;;5038585;28;20107;-60
2021/05/15 07:52:30;;;;;;;3.80;2.00;;;;;;;;;;5026367;28;20030;-60
2021/05/15 07:54:56;;;;;;;3.97;1.88;;;;;;;;;;5038010;28;20034;-62
2021/05/15 07:57:23;;;;;;;6.13;1.90;;;;;;;;;;5035944;28;20109;-60
2021/05/15 07:59:49;;;;;;;5.73;1.83;;;;;;;;;;5040356;28;20024;-61
2021/05/15 08:02:15;;;;;;;5.22;1.80;;;;;;;;;;5046676;28;20087;-61
2021/05/15 08:04:41;;;;;;;3.90;1.70;;;;;;;;;;5015049;28;20032;-60
2021/05/15 08:07:07;;;;;;;6.90;1.90;;;;;;;;;;5046031;28;20025;-60
2021/05/15 08:09:33;;;;;;;8.15;2.00;;;;;;;;;;5035812;28;20419;-60
2021/05/15 08:11:59;;;;;;;7.93;1.80;;;;;;;;;;5038466;28;20068;-60
2021/05/15 08:14:25;;;;;;;4.07;2.10;;;;;;;;;;5029138;28;20029;-61
2021/05/15 08:16:53;;;;;;;3.92;1.73;;;;;;;;;;5032755;28;20535;-61
2021/05/15 08:19:19;;;;;;;2.57;1.40;;;;;;;;;;5037340;28;20044;-60
2021/05/15 08:21:45;;;;;;;4.07;1.80;;;;;;;;;;5043956;28;20096;-61
2021/05/15 08:24:11;;;;;;;4.45;1.70;;;;;;;;;;5038908;28;20112;-60
2021/05/15 08:26:39;;;;;;;4.22;1.63;;;;;;;;;;5033267;28;20104;-61
2021/05/15 08:29:07;;;;;;;;;;;;;;;;;;5025688;28;20020;-60
2021/05/15 08:31:33;;;;;;;3.30;1.60;;;;;;;;;;5047127;28;19964;-60
2021/05/15 08:33:59;;;;;;;4.22;1.80;;;;;;;;;;5037373;28;20033;-60
2021/05/15 08:36:25;;;;;;;5.82;1.83;;;;;;;;;;5035521;28;20033;-61
2021/05/15 08:38:54;;;;;;;4.72;1.77;;;;;;;;;;5032513;28;20128;-61
2021/05/15 08:41:19;;;;;;;;;;;;;;;;;;5045280;28;20102;-62
2021/05/15 08:43:48;;;;;;;3.92;1.40;;;;;;;;;;5030208;28;20375;-62
2021/05/15 08:46:14;;;;;;;3.38;1.50;;;;;;;;;;5033125;28;20040;-62
2021/05/15 08:48:41;;;;;;;6.63;1.73;;;;;;;;;;5032854;28;20020;-63
2021/05/15 08:51:08;;;;;;;3.90;1.70;;;;;;;;;;5037253;28;20076;-62
2021/05/15 08:53:34;;;;;;;4.32;1.70;;;;;;;;;;5034074;28;20021;-63
2021/05/15 08:56:01;;;;;;;5.97;1.80;;;;;;;;;;5033271;28;20101;-63
2021/05/15 08:58:27;;;;;;;4.97;1.70;;;;;;;;;;5030833;28;20052;-63
2021/05/15 09:00:53;;;;;;;4.40;1.90;;;;;;;;;;5036664;28;20096;-63
2021/05/15 09:03:20;;;;;;;5.10;2.00;;;;;;;;;;5033908;28;20443;-63
2021/05/15 09:05:48;;;;;;;5.63;1.88;;;;;;;;;;5034001;28;20025;-63
2021/05/15 09:08:14;;;;;;;;;;;;;;;;;;5030233;28;20033;-63
2021/05/15 09:10:42;;;;;;;5.97;2.20;;;;;;;;;;5030126;28;19909;-63
2021/05/15 09:13:09;;;;;;;4.40;2.15;;;;;;;;;;5036508;28;20053;-63
2021/05/15 09:15:35;;;;;;;6.47;1.90;;;;;;;;;;5035258;28;20060;-63
2021/05/15 09:18:01;;;;;;;8.15;2.10;;;;;;;;;;5033961;28;20110;-63
2021/05/15 09:20:28;;;;;;;6.07;2.10;;;;;;;;;;5035803;28;20457;-63
2021/05/15 09:22:55;;;;;;;5.70;1.90;;;;;;;;;;5030490;28;20030;-63
2021/05/15 09:25:21;;;;;;;5.55;2.00;;;;;;;;;;5031188;28;20447;-63
2021/05/15 09:27:48;;;;;;;2.95;1.60;;;;;;;;;;5032212;28;20029;-63
2021/05/15 09:30:14;;;;;;;2.60;1.63;;;;;;;;;;5032259;28;20025;-63
2021/05/15 09:32:40;;;;;;;3.88;1.65;;;;;;;;;;5032777;28;20025;-63
2021/05/15 09:35:07;;;;;;;7.13;1.52;;;;;;;;;;5031918;28;20107;-63
2021/05/15 09:37:35;;;;;;;5.10;1.58;;;;;;;;;;5028667;28;20045;-63
2021/05/15 09:40:13;;;;;;;5.90;1.63;;;;;;;;;;5031684;28;20029;-63
2021/05/15 09:42:48;;;;;;;3.33;1.67;;;;;;;;;;5033098;28;20034;-63
2021/05/15 09:45:28;;;;;;;3.75;1.52;;;;;;;;;;5034109;28;20029;-63
2021/05/15 09:48:34;;;;;;;4.15;1.45;;;;;;;;;;5030946;28;20112;-62
2021/05/15 09:50:56;;;;;;;4.45;1.42;;;;;;;;;;5033523;28;20029;-63
2021/05/15 09:53:23;;;;;;;2.78;1.50;;;;;;;;;;5034188;28;20028;-63
2021/05/15 09:55:53;;;;;;;3.83;1.40;;;;;;;;;;5030798;28;20028;-62
2021/05/15 09:58:19;;;;;;;4.03;1.50;;;;;;;;;;5032167;28;20175;-63
2021/05/15 10:00:47;;;;;;;4.57;1.63;;;;;;;;;;5035187;28;20029;-62
2021/05/15 10:03:20;;;;;;;3.60;1.70;;;;;;;;;;5031948;28;20143;-63
2021/05/15 10:05:56;;;;;;;5.00;1.70;;;;;;;;;;5032373;28;20171;-63
2021/05/15 10:08:23;;;;;;;4.82;1.40;;;;;;;;;;5029770;28;20022;-63
2021/05/15 10:10:49;;;;;;;4.82;2.63;;;;;;;;;;5030634;28;20116;-63
2021/05/15 10:13:15;;;;;;;2.83;1.30;;;;;;;;;;5033053;28;20032;-62
2021/05/15 10:15:41;;;;;;;4.18;1.63;;;;;;;;;;5034836;28;20025;-62
2021/05/15 10:18:07;;;;;;;3.60;1.50;;;;;;;;;;5033144;28;20034;-63
2021/05/15 10:20:33;;;;;;;4.35;1.80;;;;;;;;;;5033273;28;20076;-63
2021/05/15 10:23:00;;;;;;;6.28;1.90;;;;;;;;;;5032003;28;20063;-63
2021/05/15 10:25:29;;;;;;;2.95;1.63;;;;;;;;;;5030057;28;20500;-63
2021/05/15 10:28:04;;;;;;;5.53;1.55;;;;;;;;;;5035286;28;20052;-63
2021/05/15 10:30:30;;;;;;;2.63;1.30;;;;;;;;;;5033183;28;20056;-63
2021/05/15 10:33:03;;;;;;;3.45;1.38;;;;;;;;;;5032029;28;20063;-63
2021/05/15 10:35:33;;;;;;;5.85;1.35;;;;;;;;;;5032917;28;20025;-63
2021/05/15 10:38:09;;;;;;;2.78;1.45;;;;;;;;;;5028902;28;20064;-63
2021/05/15 10:40:55;;;;;;;3.65;1.30;;;;;;;;;;5027394;28;20112;-62
2021/05/15 10:43:32;;;;;;;3.00;1.40;;;;;;;;;;5043192;28;20025;-63
2021/05/15 10:45:58;;;;;;;3.67;1.55;;;;;;;;;;5034409;28;20029;-63
2021/05/15 10:48:27;;;;;;;3.17;1.42;;;;;;;;;;5032782;28;20502;-63
2021/05/15 10:50:57;;;;;;;4.22;1.70;;;;;;;;;;5032866;28;20037;-63
2021/05/15 10:53:27;;;;;;;5.20;1.67;;;;;;;;;;5032980;28;20032;-63
2021/05/15 10:56:09;;;;;;;4.15;1.75;;;;;;;;;;5033732;28;20555;-63
2021/05/15 10:58:42;;;;;;;2.97;1.35;;;;;;;;;;5032431;28;20053;-63
2021/05/15 11:01:12;;;;;;;4.38;1.35;;;;;;;;;;5047009;28;20025;-63
2021/05/15 11:03:39;;;;;;;3.30;1.40;;;;;;;;;;5037789;28;20040;-63
2021/05/15 11:06:19;;;;;;;3.75;1.60;;;;;;;;;;5036614;28;20109;-63
2021/05/15 11:08:56;;;;;;;3.47;1.50;;;;;;;;;;5032989;28;20025;-63
2021/05/15 11:11:23;;;;;;;2.38;1.33;;;;;;;;;;5036615;28;20025;-63
2021/05/15 11:13:51;;;;;;;3.33;1.70;;;;;;;;;;5033997;28;20079;-63
2021/05/15 11:16:17;;;;;;;3.47;1.50;;;;;;;;;;5036294;28;20036;-63
2021/05/15 11:18:44;;;;;;;3.67;1.45;;;;;;;;;;5052817;28;20344;-63
2021/05/15 11:21:10;;;;;;;6.38;1.60;;;;;;;;;;5034506;28;20022;-63
2021/05/15 11:23:47;;;;;;;2.67;1.23;;;;;;;;;;5035998;28;20029;-63
2021/05/15 11:26:18;;;;;;;2.63;1.10;;;;;;;;;;5036813;28;20111;-63
2021/05/15 11:28:44;;;;;;;3.45;1.30;;;;;;;;;;5032759;28;20030;-63
2021/05/15 11:31:11;;;;;;;3.22;1.20;;;;;;;;;;5037404;28;20083;-63
2021/05/15 11:33:37;;;;;;;3.30;1.20;;;;;;;;;;5035608;28;20033;-63
2021/05/15 11:36:04;;;;;;;3.35;1.30;;;;;;;;;;5035608;28;20021;-63
2021/05/15 11:38:31;;;;;;;3.80;1.75;;;;;;;;;;5035093;28;20037;-63
2021/05/15 11:40:58;;;;;;;4.47;1.50;;;;;;;;;;5047577;28;20100;-63
2021/05/15 11:43:28;;;;;;;4.47;1.92;;;;;;;;;;5033589;28;20266;-63
2021/05/15 11:45:55;;;;;;;3.63;1.58;;;;;;;;;;5038485;28;20025;-63
2021/05/15 11:48:22;;;;;;;3.85;1.38;;;;;;;;;;5035541;28;20068;-63
2021/05/15 11:51:09;;;;;;;6.43;1.55;;;;;;;;;;5035793;28;20173;-63
2021/05/15 11:53:36;;;;;;;2.85;1.30;;;;;;;;;;5036315;28;20025;-63
2021/05/15 11:56:02;;;;;;;5.43;1.38;;;;;;;;;;5035064;28;20119;-63
2021/05/15 11:58:28;;;;;;;2.90;1.35;;;;;;;;;;5032166;28;20046;-63
2021/05/15 12:00:54;;;;;;;4.50;1.67;;;;;;;;;;5036593;28;20029;-63
2021/05/15 12:03:21;;;;;;;3.78;1.80;;;;;;;;;;5033783;28;20091;-62
2021/05/15 12:05:49;;;;;;;3.92;1.58;;;;;;;;;;5034924;28;20025;-62
2021/05/15 12:08:15;;;;;;;2.15;1.38;;;;;;;;;;5032429;28;20600;-63
2021/05/15 12:10:41;;;;;;;3.17;1.45;;;;;;;;;;5031977;28;20025;-62
2021/05/15 12:13:08;;;;;;;3.88;1.50;;;;;;;;;;5036919;28;20018;-62
2021/05/15 12:15:36;;;;;;;3.92;1.83;;;;;;;;;;5036185;28;20025;-62
2021/05/15 12:18:02;;;;;;;5.97;1.67;;;;;;;;;;5035391;28;20029;-62
2021/05/15 12:20:40;;;;;;;3.63;1.20;;;;;;;;;;5035043;28;20033;-62
2021/05/15 12:23:11;;;;;;;3.00;1.13;;;;;;;;;;5035137;28;20032;-62
2021/05/15 12:25:38;;;;;;;4.68;1.48;;;;;;;;;;5015526;28;20080;-62
2021/05/15 12:28:04;;;;;;;1.23;0.75;;;;;;;;;;5037737;28;20025;-64
2021/05/15 12:30:35;;;;;;;3.10;1.13;;;;;;;;;;5032928;28;20175;-62
2021/05/15 12:33:05;;;;;;;2.17;1.25;;;;;;;;;;5034683;28;20099;-62
2021/05/15 12:35:32;;;;;;;1.20;0.75;;;;;;;;;;5035147;28;20064;-62
2021/05/15 12:37:58;;;;;;;2.72;0.90;;;;;;;;;;5029734;28;20133;-62
2021/05/15 12:40:29;;;;;;;2.80;1.10;;;;;;;;;;5047528;28;20021;-62
2021/05/15 12:42:55;;;;;;;1.73;0.80;;;;;;;;;;5036032;28;20029;-62
2021/05/15 12:45:22;;;;;;;6.93;1.70;;;;;;;;;;5034991;28;20483;-62
2021/05/15 12:47:48;;;;;;;3.53;1.30;;;;;;;;;;5034590;28;20032;-62
2021/05/15 12:50:17;;;;;;;7.15;2.75;;;;;;;;;;5034504;28;20023;-62
2021/05/15 12:52:43;;;;;;;1.52;0.90;;;;;;;;;;5031453;28;20046;-62
2021/05/15 12:55:11;;;;;;;2.08;0.95;;;;;;;;;;5036104;28;20040;-62
2021/05/15 12:57:37;;;;;;;3.35;0.93;;;;;;;;;;5034102;28;20036;-63
2021/05/15 13:00:04;;;;;;;2.88;0.93;;;;;;;;;;5034342;28;20037;-63
2021/05/15 13:02:30;;;;;;;6.18;1.63;;;;;;;;;;5034567;28;20086;-63
2021/05/15 13:05:00;;;;;;;8.10;3.53;;;;;;;;;;5032615;28;20496;-63
2021/05/15 13:07:30;;;;;;;7.68;2.85;;;;;;;;;;5032060;28;20417;-63
2021/05/15 13:09:56;;;;;;;2.58;1.40;;;;;;;;;;5033028;28;20053;-61
2021/05/15 13:12:26;;;;;;;4.45;2.10;;;;;;;;;;5034536;28;20033;-63
2021/05/15 13:14:52;;;;;;;1.80;0.70;;;;;;;;;;5034252;28;20068;-63
2021/05/15 13:17:18;;;;;;;1.30;0.70;;;;;;;;;;5031801;28;20110;-63
2021/05/15 13:19:44;;;;;;;4.15;2.10;;;;;;;;;;5029069;28;20038;-63
2021/05/15 13:22:10;;;;;;;2.47;0.88;;;;;;;;;;5034844;28;20021;-63
2021/05/15 13:24:38;;;;;;;6.53;2.17;;;;;;;;;;5034702;28;20433;-63
2021/05/15 13:27:04;;;;;;;4.20;1.48;;;;;;;;;;5034397;28;20053;-63
2021/05/15 13:29:30;;;;;;;1.98;1.15;;;;;;;;;;5033753;28;20024;-63
2021/05/15 13:31:58;;;;;;;1.98;0.80;;;;;;;;;;5032148;28;20032;-63
2021/05/15 13:34:24;;;;;;;1.50;0.70;;;;;;;;;;5031748;28;20025;-63
2021/05/15 13:36:50;;;;;;;11.68;1.77;;;;;;;;;;5036214;28;20053;-63
2021/05/15 13:39:16;;;;;;;2.75;0.77;;;;;;;;;;5030055;28;20045;-63
2021/05/15 13:41:43;;;;;;;2.75;1.05;;;;;;;;;;5033547;28;20104;-63
2021/05/15 13:44:09;;;;;;;4.97;0.90;;;;;;;;;;5034102;28;20047;-62
2021/05/15 13:46:36;;;;;;;6.22;1.77;;;;;;;;;;5029657;28;20401;-65
2021/05/15 13:49:02;;;;;;;33.88;4.68;;;;;;;;;;5034112;28;20036;-63
2021/05/15 13:51:29;;;;;;;1.55;1.10;;;;;;;;;;5033024;28;20017;-62
2021/05/15 13:53:55;;;;;;;2.00;1.13;;;;;;;;;;5033784;28;20117;-62
2021/05/15 13:56:22;;;;;;;23.08;2.75;;;;;;;;;;5032401;28;20017;-62
2021/05/15 13:58:48;;;;;;;1.33;0.70;;;;;;;;;;5028547;28;20113;-62
2021/05/15 14:01:14;;;;;;;1.38;0.75;;;;;;;;;;5032623;28;20404;-62
2021/05/15 14:03:41;;;;;;;2.15;1.10;;;;;;;;;;5034620;28;20021;-62
2021/05/15 14:06:07;;;;;;;4.60;1.45;;;;;;;;;;5033717;28;20480;-62
2021/05/15 14:08:33;;;;;;;1.92;0.90;;;;;;;;;;5029797;28;20031;-62
2021/05/15 14:11:00;;;;;;;1.85;1.02;;;;;;;;;;5032068;28;20115;-62
2021/05/15 14:13:26;;;;;;;1.40;0.63;;;;;;;;;;5030196;28;20477;-62
2021/05/15 14:15:52;;;;;;;2.20;0.75;;;;;;;;;;5035267;28;20025;-62
2021/05/15 14:18:18;;;;;;;1.85;0.90;;;;;;;;;;5033507;28;20048;-62
2021/05/15 14:20:44;;;;;;;1.25;0.70;;;;;;;;;;5033282;28;20022;-62
2021/05/15 14:23:10;;;;;;;7.70;2.30;;;;;;;;;;5033222;28;20028;-62
2021/05/15 14:25:36;;;;;;;1.65;0.65;;;;;;;;;;5012493;28;20497;-62
2021/05/15 14:28:03;;;;;;;3.95;1.00;;;;;;;;;;5035349;28;20025;-62
2021/05/15 14:30:29;;;;;;;2.65;0.90;;;;;;;;;;5032509;28;20036;-62
2021/05/15 14:32:55;;;;;;;12.20;6.07;;;;;;;;;;5032763;28;20104;-62
2021/05/15 14:35:21;;;;;;;3.38;1.27;;;;;;;;;;5031444;28;20029;-62
2021/05/15 14:37:47;;;;;;;3.88;2.08;;;;;;;;;;5027829;28;20046;-62
2021/05/15 14:40:17;;;;;;;6.88;1.50;;;;;;;;;;5029994;28;20084;-62